createdAt,value
2023-04-16T00:01:53.803Z,14.69
2023-04-16T00:04:56.340Z,14.68
2023-04-16T00:07:58.723Z,14.53
2023-04-16T00:11:01.037Z,14.55
2023-04-16T00:14:03.398Z,14.69
2023-04-16T00:17:05.870Z,14.55
2023-04-16T00:20:09.262Z,14.66
2023-04-16T00:23:11.618Z,14.55
2023-04-16T00:26:13.970Z,14.45
2023-04-16T00:29:19.269Z,14.51
2023-04-16T00:32:21.633Z,14.67
2023-04-16T00:35:24.097Z,14.66
2023-04-16T00:38:30.353Z,14.53
2023-04-16T00:41:32.730Z,14.61
2023-04-16T00:44:36.169Z,14.51
2023-04-16T00:47:39.010Z,14.63
2023-04-16T00:50:41.853Z,14.62
2023-04-16T00:53:46.081Z,14.61
2023-04-16T00:56:48.853Z,14.51
2023-04-16T00:59:51.689Z,14.50
2023-04-16T01:02:54.754Z,14.46
2023-04-16T01:05:57.187Z,14.47
2023-04-16T01:08:59.605Z,14.48
2023-04-16T01:12:02.193Z,14.42
2023-04-16T01:15:05.011Z,14.50
2023-04-16T01:18:15.372Z,14.50
2023-04-16T01:21:17.758Z,14.43
2023-04-16T01:24:20.106Z,14.50
2023-04-16T01:27:22.521Z,14.47
2023-04-16T01:30:25.434Z,14.31
2023-04-16T01:33:40.667Z,14.41
2023-04-16T01:36:43.184Z,14.45
2023-04-16T01:39:45.508Z,14.37
2023-04-16T01:42:47.936Z,14.33
2023-04-16T01:45:50.355Z,14.43
2023-04-16T01:48:54.804Z,14.31
2023-04-16T01:51:57.110Z,14.42
2023-04-16T01:54:59.486Z,14.33
2023-04-16T01:58:01.832Z,14.33
2023-04-16T02:01:09.119Z,14.36
2023-04-16T02:04:12.856Z,14.31
2023-04-16T02:07:15.256Z,14.36
2023-04-16T02:10:17.573Z,14.30
2023-04-16T02:13:20.488Z,14.27
2023-04-16T02:16:24.104Z,14.35
2023-04-16T02:19:35.340Z,14.28
2023-04-16T02:22:37.720Z,14.33
2023-04-16T02:25:43.641Z,14.34
2023-04-16T02:28:47.035Z,14.34
2023-04-16T02:31:50.164Z,14.17
2023-04-16T02:34:52.825Z,14.34
2023-04-16T02:37:55.131Z,14.21
2023-04-16T02:40:57.539Z,14.29
2023-04-16T02:43:59.913Z,14.27
2023-04-16T02:47:02.390Z,14.25
2023-04-16T02:50:05.091Z,14.17
2023-04-16T02:53:07.897Z,14.31
2023-04-16T02:56:10.559Z,14.29
2023-04-16T02:59:12.901Z,14.19
2023-04-16T03:02:16.272Z,14.19
2023-04-16T03:05:18.769Z,14.24
2023-04-16T03:08:22.379Z,14.24
2023-04-16T03:11:24.757Z,14.24
2023-04-16T03:14:27.094Z,14.25
2023-04-16T03:17:30.801Z,14.24
2023-04-16T03:20:33.426Z,14.14
2023-04-16T03:23:36.484Z,14.22
2023-04-16T03:26:40.741Z,14.22
2023-04-16T03:29:43.244Z,14.22
2023-04-16T03:32:45.701Z,14.15
2023-04-16T03:35:55.561Z,14.16
2023-04-16T03:38:58.447Z,14.06
2023-04-16T03:42:02.236Z,14.11
2023-04-16T03:45:05.237Z,14.10
2023-04-16T03:48:07.933Z,14.19
2023-04-16T03:51:10.553Z,14.14
2023-04-16T03:54:14.634Z,14.13
2023-04-16T03:57:20.627Z,14.18
2023-04-16T04:00:23.348Z,14.18
2023-04-16T04:03:42.141Z,14.19
2023-04-16T04:06:46.348Z,14.14
2023-04-16T04:09:48.859Z,14.18
2023-04-16T04:12:51.390Z,14.18
2023-04-16T04:15:53.898Z,14.11
2023-04-16T04:18:57.227Z,14.20
2023-04-16T04:21:59.635Z,14.13
2023-04-16T04:25:02.080Z,14.12
2023-04-16T04:28:07.383Z,14.13
2023-04-16T04:31:09.822Z,14.13
2023-04-16T04:34:12.100Z,14.19
2023-04-16T04:37:14.432Z,14.23
2023-04-16T04:40:16.926Z,14.20
2023-04-16T04:43:20.763Z,14.12
2023-04-16T04:46:23.370Z,14.30
2023-04-16T04:49:26.067Z,14.34
2023-04-16T04:52:28.449Z,14.24
2023-04-16T04:55:30.940Z,14.29
2023-04-16T04:58:33.964Z,14.35
2023-04-16T05:01:36.399Z,14.42
2023-04-16T05:04:38.808Z,14.31
2023-04-16T05:07:41.168Z,14.45
2023-04-16T05:10:43.555Z,14.37
2023-04-16T05:13:45.941Z,14.51
2023-04-16T05:16:48.330Z,14.53
2023-04-16T05:19:52.343Z,14.54
2023-04-16T05:22:55.502Z,14.48
2023-04-16T05:25:57.853Z,14.56
2023-04-16T05:29:00.199Z,14.58
2023-04-16T05:32:02.865Z,14.61
2023-04-16T05:35:05.673Z,14.52
2023-04-16T05:38:08.281Z,14.55
2023-04-16T05:41:10.757Z,14.64
2023-04-16T05:44:13.094Z,14.74
2023-04-16T05:47:15.608Z,14.65
2023-04-16T05:50:18.016Z,14.73
2023-04-16T05:53:20.384Z,14.79
2023-04-16T05:56:23.421Z,14.81
2023-04-16T05:59:25.814Z,14.81
2023-04-16T06:02:30.563Z,14.84
2023-04-16T06:05:33.015Z,14.87
2023-04-16T06:08:35.585Z,14.90
2023-04-16T06:11:37.948Z,14.79
2023-04-16T06:14:40.384Z,14.96
2023-04-16T06:17:42.704Z,14.87
2023-04-16T06:20:45.097Z,14.99
2023-04-16T06:23:47.405Z,14.94
2023-04-16T06:26:49.734Z,15.02
2023-04-16T06:29:52.122Z,15.02
2023-04-16T06:32:54.562Z,15.03
2023-04-16T06:35:56.976Z,15.04
2023-04-16T06:38:59.301Z,15.03
2023-04-16T06:42:01.895Z,15.00
2023-04-16T06:45:04.589Z,15.02
2023-04-16T06:48:07.026Z,15.01
2023-04-16T06:51:09.511Z,14.98
2023-04-16T06:54:11.882Z,14.97
2023-04-16T06:57:14.269Z,14.97
2023-04-16T07:00:16.778Z,14.97
2023-04-16T07:03:19.374Z,14.95
2023-04-16T07:06:21.852Z,15.05
2023-04-16T07:09:24.270Z,15.01
2023-04-16T07:12:27.294Z,14.95
2023-04-16T07:15:29.705Z,14.93
2023-04-16T07:18:32.187Z,14.97
2023-04-16T07:21:34.570Z,15.07
2023-04-16T07:24:36.902Z,15.00
2023-04-16T07:27:39.264Z,15.10
2023-04-16T07:30:41.670Z,15.11
2023-04-16T07:33:44.059Z,15.15
2023-04-16T07:36:46.446Z,15.21
2023-04-16T07:39:48.820Z,15.31
2023-04-16T07:42:51.265Z,15.58
2023-04-16T07:45:53.621Z,15.75
2023-04-16T07:48:56.066Z,15.85
2023-04-16T07:51:58.421Z,15.94
2023-04-16T07:55:01.000Z,15.95
2023-04-16T07:58:03.459Z,15.95
2023-04-16T08:01:06.162Z,15.99
2023-04-16T08:04:08.680Z,16.02
2023-04-16T08:07:11.220Z,16.01
2023-04-16T08:10:13.645Z,16.06
2023-04-16T08:13:16.054Z,16.04
2023-04-16T08:16:18.560Z,16.03
2023-04-16T08:19:21.020Z,16.05
2023-04-16T08:22:23.431Z,16.04
2023-04-16T08:25:25.879Z,16.10
2023-04-16T08:28:28.209Z,16.15
2023-04-16T08:31:30.669Z,16.12
2023-04-16T08:34:33.111Z,16.10
2023-04-16T08:37:35.541Z,16.16
2023-04-16T08:40:41.712Z,16.19
2023-04-16T08:43:45.685Z,16.24
2023-04-16T08:46:48.467Z,16.25
2023-04-16T08:49:52.081Z,16.28
2023-04-16T08:52:59.051Z,16.23
2023-04-16T08:56:04.434Z,16.30
2023-04-16T08:59:06.794Z,16.32
2023-04-16T09:02:10.196Z,16.33
2023-04-16T09:05:19.051Z,16.34
2023-04-16T09:08:21.521Z,16.35
2023-04-16T09:11:24.491Z,16.30
2023-04-16T09:14:27.195Z,16.33
2023-04-16T09:17:29.657Z,16.39
2023-04-16T09:20:32.087Z,16.38
2023-04-16T09:23:34.608Z,16.40
2023-04-16T09:26:37.102Z,16.36
2023-04-16T09:29:40.884Z,16.41
2023-04-16T09:32:43.256Z,16.42
2023-04-16T09:35:47.737Z,16.45
2023-04-16T09:38:51.918Z,16.44
2023-04-16T09:41:55.209Z,16.43
2023-04-16T09:45:00.349Z,16.38
2023-04-16T09:48:06.091Z,16.33
2023-04-16T09:51:08.510Z,16.46
2023-04-16T09:54:11.248Z,16.38
2023-04-16T09:57:13.686Z,16.38
2023-04-16T10:00:19.097Z,16.32
2023-04-16T10:03:30.844Z,16.43
2023-04-16T10:06:33.410Z,16.29
2023-04-16T10:09:39.462Z,16.35
2023-04-16T10:12:41.865Z,16.27
2023-04-16T10:15:44.301Z,16.30
2023-04-16T10:18:47.305Z,16.32
2023-04-16T10:21:49.833Z,16.37
2023-04-16T10:24:52.695Z,16.28
2023-04-16T10:27:55.670Z,16.38
2023-04-16T10:30:58.846Z,16.39
2023-04-16T10:34:01.662Z,16.26
2023-04-16T10:37:04.016Z,16.39
2023-04-16T10:40:23.137Z,16.35
2023-04-16T10:43:25.636Z,16.35
2023-04-16T10:46:32.830Z,16.37
2023-04-16T10:49:35.692Z,16.40
2023-04-16T10:52:38.056Z,16.35
2023-04-16T10:55:40.376Z,16.33
2023-04-16T10:58:42.874Z,16.31
2023-04-16T11:01:47.157Z,16.33
2023-04-16T11:04:50.166Z,16.30
2023-04-16T11:07:52.665Z,16.20
2023-04-16T11:10:58.631Z,16.36
2023-04-16T11:14:01.101Z,16.29
2023-04-16T11:17:06.516Z,16.29
2023-04-16T11:20:17.755Z,16.34
2023-04-16T11:23:23.111Z,16.34
2023-04-16T11:26:27.680Z,16.27
2023-04-16T11:29:30.047Z,16.25
2023-04-16T11:32:33.875Z,16.34
2023-04-16T11:35:36.290Z,16.28
2023-04-16T11:38:41.068Z,16.34
2023-04-16T11:41:44.667Z,16.30
2023-04-16T11:44:47.055Z,16.34
2023-04-16T11:47:55.557Z,16.32
2023-04-16T11:50:58.907Z,16.29
2023-04-16T11:54:02.279Z,16.27
2023-04-16T11:57:05.055Z,16.35
2023-04-16T12:00:13.546Z,16.32
2023-04-16T12:03:16.309Z,16.32
2023-04-16T12:06:18.860Z,16.38
2023-04-16T12:09:25.351Z,16.36
2023-04-16T12:12:30.817Z,16.39
2023-04-16T12:15:44.829Z,16.40
2023-04-16T12:19:04.199Z,16.40
2023-04-16T12:22:06.696Z,16.41
2023-04-16T12:25:17.158Z,16.43
2023-04-16T12:28:29.987Z,16.43
2023-04-16T12:31:38.570Z,16.45
2023-04-16T12:34:51.290Z,16.44
2023-04-16T12:37:53.634Z,16.32
2023-04-16T12:40:57.599Z,16.45
2023-04-16T12:44:14.400Z,16.47
2023-04-16T12:47:17.017Z,16.44
2023-04-16T12:50:19.375Z,16.41
2023-04-16T12:53:21.741Z,16.40
2023-04-16T12:56:24.254Z,16.47
2023-04-16T12:59:26.565Z,16.47
2023-04-16T13:02:29.699Z,16.47
2023-04-16T13:05:32.099Z,16.46
2023-04-16T13:08:34.447Z,16.45
2023-04-16T13:11:36.831Z,16.48
2023-04-16T13:14:39.315Z,16.49
2023-04-16T13:17:41.676Z,16.40
2023-04-16T13:20:44.111Z,16.49
2023-04-16T13:23:46.516Z,16.40
2023-04-16T13:26:48.964Z,16.37
2023-04-16T13:29:51.300Z,16.47
2023-04-16T13:32:53.645Z,16.46
2023-04-16T13:35:56.118Z,16.50
2023-04-16T13:38:59.419Z,16.37
2023-04-16T13:42:02.738Z,16.49
2023-04-16T13:45:05.796Z,16.48
2023-04-16T13:48:08.283Z,16.41
2023-04-16T13:51:10.796Z,16.42
2023-04-16T13:54:13.386Z,16.40
2023-04-16T13:57:16.017Z,16.49
2023-04-16T14:00:18.768Z,16.40
2023-04-16T14:03:21.270Z,16.42
2023-04-16T14:06:23.660Z,16.49
2023-04-16T14:09:26.267Z,16.49
2023-04-16T14:12:28.764Z,16.51
2023-04-16T14:15:31.723Z,16.50
2023-04-16T14:18:34.119Z,16.42
2023-04-16T14:21:36.566Z,16.50
2023-04-16T14:24:39.041Z,16.44
2023-04-16T14:27:41.603Z,16.46
2023-04-16T14:30:44.178Z,16.44
2023-04-16T14:33:46.905Z,16.48
2023-04-16T14:36:50.425Z,16.40
2023-04-16T14:39:52.797Z,16.47
2023-04-16T14:42:55.204Z,16.46
2023-04-16T14:45:59.071Z,16.41
2023-04-16T14:49:01.686Z,16.31
2023-04-16T14:52:05.796Z,16.46
2023-04-16T14:55:08.312Z,16.47
2023-04-16T14:58:10.883Z,16.39
2023-04-16T15:01:14.945Z,16.45
2023-04-16T15:04:17.517Z,16.45
2023-04-16T15:07:20.095Z,16.35
2023-04-16T15:10:22.575Z,16.42
2023-04-16T15:13:25.093Z,16.45
2023-04-16T15:16:27.425Z,16.44
2023-04-16T15:19:29.942Z,16.32
2023-04-16T15:22:32.414Z,16.42
2023-04-16T15:25:34.953Z,16.42
2023-04-16T15:28:37.317Z,16.41
2023-04-16T15:31:39.687Z,16.38
2023-04-16T15:34:42.233Z,16.29
2023-04-16T15:37:44.557Z,16.36
2023-04-16T15:40:47.224Z,16.31
2023-04-16T15:43:49.655Z,16.30
2023-04-16T15:46:52.507Z,16.28
2023-04-16T15:49:55.432Z,16.36
2023-04-16T15:52:57.949Z,16.33
2023-04-16T15:56:00.946Z,16.28
2023-04-16T15:59:03.952Z,16.36
2023-04-16T16:02:06.682Z,16.35
2023-04-16T16:05:13.778Z,16.35
2023-04-16T16:08:16.598Z,16.33
2023-04-16T16:11:19.170Z,16.31
2023-04-16T16:14:22.089Z,16.32
2023-04-16T16:17:25.170Z,16.23
2023-04-16T16:20:27.943Z,16.27
2023-04-16T16:23:30.521Z,16.30
2023-04-16T16:26:33.063Z,16.27
2023-04-16T16:29:35.404Z,16.27
2023-04-16T16:32:40.891Z,16.25
2023-04-16T16:35:43.446Z,16.26
2023-04-16T16:38:47.413Z,16.22
2023-04-16T16:41:52.370Z,16.24
2023-04-16T16:44:56.776Z,16.15
2023-04-16T16:48:00.159Z,16.13
2023-04-16T16:51:02.775Z,16.22
2023-04-16T16:54:07.833Z,16.20
2023-04-16T16:57:10.166Z,16.19
2023-04-16T17:00:19.823Z,16.14
2023-04-16T17:03:22.454Z,16.08
2023-04-16T17:06:25.034Z,16.18
2023-04-16T17:09:27.813Z,16.16
2023-04-16T17:12:30.654Z,16.12
2023-04-16T17:15:33.181Z,16.16
2023-04-16T17:18:35.834Z,16.16
2023-04-16T17:21:38.467Z,16.16
2023-04-16T17:24:42.132Z,16.06
2023-04-16T17:27:44.722Z,16.05
2023-04-16T17:30:51.490Z,16.14
2023-04-16T17:33:54.075Z,16.11
2023-04-16T17:36:56.601Z,15.99
2023-04-16T17:39:59.263Z,16.08
2023-04-16T17:43:01.785Z,16.11
2023-04-16T17:46:05.242Z,16.03
2023-04-16T17:49:08.895Z,16.01
2023-04-16T17:52:11.478Z,16.03
2023-04-16T17:55:13.977Z,16.04
2023-04-16T17:58:16.397Z,16.06
2023-04-16T18:01:18.790Z,16.03
2023-04-16T18:04:21.500Z,16.02
2023-04-16T18:07:24.114Z,16.02
2023-04-16T18:10:26.683Z,16.01
2023-04-16T18:13:29.229Z,15.99
2023-04-16T18:16:32.346Z,15.98
2023-04-16T18:19:35.714Z,15.86
2023-04-16T18:22:38.199Z,15.83
2023-04-16T18:25:40.969Z,15.95
2023-04-16T18:28:43.631Z,15.92
2023-04-16T18:31:46.182Z,15.88
2023-04-16T18:34:48.808Z,15.88
2023-04-16T18:37:51.465Z,15.82
2023-04-16T18:40:54.021Z,15.86
2023-04-16T18:43:56.859Z,15.76
2023-04-16T18:46:59.396Z,15.76
2023-04-16T18:50:02.016Z,15.71
2023-04-16T18:53:04.551Z,15.71
2023-04-16T18:56:07.252Z,15.78
2023-04-16T18:59:09.974Z,15.68
2023-04-16T19:02:12.642Z,15.72
2023-04-16T19:05:15.529Z,15.67
2023-04-16T19:08:18.126Z,15.72
2023-04-16T19:11:20.695Z,15.71
2023-04-16T19:14:23.293Z,15.67
2023-04-16T19:17:26.674Z,15.57
2023-04-16T19:20:29.094Z,15.58
2023-04-16T19:23:31.755Z,15.57
2023-04-16T19:26:34.206Z,15.55
2023-04-16T19:29:37.024Z,15.54
2023-04-16T19:32:39.648Z,15.61
2023-04-16T19:35:43.034Z,15.52
2023-04-16T19:38:45.862Z,15.58
2023-04-16T19:41:48.209Z,15.60
2023-04-16T19:44:50.764Z,15.55
2023-04-16T19:47:53.733Z,15.58
2023-04-16T19:50:56.290Z,15.57
2023-04-16T19:53:59.077Z,15.55
2023-04-16T19:57:01.635Z,15.48
2023-04-16T20:00:08.390Z,15.53
2023-04-16T20:03:10.977Z,15.47
2023-04-16T20:06:13.620Z,15.52
2023-04-16T20:09:18.658Z,15.53
2023-04-16T20:12:21.040Z,15.53
2023-04-16T20:15:23.606Z,15.53
2023-04-16T20:18:28.232Z,15.51
2023-04-16T20:21:32.018Z,15.50
2023-04-16T20:24:34.525Z,15.44
2023-04-16T20:27:36.925Z,15.51
2023-04-16T20:30:39.504Z,15.50
2023-04-16T20:33:41.839Z,15.48
2023-04-16T20:36:44.354Z,15.48
2023-04-16T20:39:50.043Z,15.47
2023-04-16T20:42:52.440Z,15.41
2023-04-16T20:45:54.794Z,15.41
2023-04-16T20:48:57.197Z,15.37
2023-04-16T20:51:59.715Z,15.47
2023-04-16T20:55:02.121Z,15.45
2023-04-16T20:58:04.464Z,15.46
2023-04-16T21:01:06.989Z,15.20
2023-04-16T21:04:09.756Z,15.45
2023-04-16T21:07:12.358Z,15.45
2023-04-16T21:10:20.285Z,15.38
2023-04-16T21:13:22.929Z,15.39
2023-04-16T21:16:25.450Z,15.40
2023-04-16T21:19:27.819Z,15.45
2023-04-16T21:22:30.234Z,15.44
2023-04-16T21:25:33.556Z,15.44
2023-04-16T21:28:35.996Z,15.42
2023-04-16T21:31:38.415Z,15.44
2023-04-16T21:34:40.779Z,15.40
2023-04-16T21:37:43.123Z,15.42
2023-04-16T21:40:46.881Z,15.42
2023-04-16T21:43:49.220Z,15.43
2023-04-16T21:46:51.735Z,15.34
2023-04-16T21:49:54.156Z,15.36
2023-04-16T21:52:56.545Z,15.33
2023-04-16T21:55:59.138Z,15.31
2023-04-16T21:59:01.470Z,15.41
2023-04-16T22:02:04.212Z,15.41
2023-04-16T22:05:07.451Z,15.36
2023-04-16T22:08:23.272Z,15.36
2023-04-16T22:11:27.278Z,15.32
2023-04-16T22:14:30.285Z,15.39
2023-04-16T22:17:34.359Z,15.26
2023-04-16T22:20:39.190Z,15.37
2023-04-16T22:23:41.834Z,15.31
2023-04-16T22:26:44.146Z,15.38
2023-04-16T22:29:46.510Z,15.36
2023-04-16T22:32:48.938Z,15.28
2023-04-16T22:35:51.983Z,15.36
2023-04-16T22:38:54.348Z,15.23
2023-04-16T22:41:56.748Z,15.26
2023-04-16T22:44:59.043Z,15.36
2023-04-16T22:48:01.453Z,15.26
2023-04-16T22:51:04.884Z,15.35
2023-04-16T22:54:07.937Z,15.35
2023-04-16T22:57:10.274Z,15.29
2023-04-16T23:00:16.516Z,15.34
2023-04-16T23:03:19.072Z,15.31
2023-04-16T23:06:22.062Z,15.32
2023-04-16T23:09:24.402Z,15.27
2023-04-16T23:12:26.791Z,15.33
2023-04-16T23:15:29.509Z,15.33
2023-04-16T23:18:31.930Z,15.33
2023-04-16T23:21:34.252Z,15.33
2023-04-16T23:24:36.605Z,15.31
2023-04-16T23:27:38.961Z,15.31
2023-04-16T23:30:41.318Z,15.32
2023-04-16T23:33:43.613Z,15.33
2023-04-16T23:36:46.404Z,15.30
2023-04-16T23:39:48.752Z,15.29
2023-04-16T23:42:51.113Z,15.24
2023-04-16T23:45:53.506Z,15.31
2023-04-16T23:48:55.948Z,15.30
2023-04-16T23:51:58.378Z,15.23
2023-04-16T23:55:00.779Z,15.30
2023-04-16T23:58:03.190Z,15.21
